sensor_id;sensor_type;location;lat;lon;timestamp;temperature;humidity
11983;DHT22;72623;51.184;7.176;2024-02-26T00:01:25;7.60;90.80
11983;DHT22;72623;51.184;7.176;2024-02-26T00:03:57;7.60;90.10
11983;DHT22;72623;51.184;7.176;2024-02-26T00:06:33;7.60;90.60
11983;DHT22;72623;51.184;7.176;2024-02-26T00:09:13;7.60;91.60
11983;DHT22;72623;51.184;7.176;2024-02-26T00:11:50;7.60;91.60
11983;DHT22;72623;51.184;7.176;2024-02-26T00:14:28;7.60;91.70
11983;DHT22;72623;51.184;7.176;2024-02-26T00:17:06;7.60;91.00
11983;DHT22;72623;51.184;7.176;2024-02-26T00:19:52;7.60;91.10
11983;DHT22;72623;51.184;7.176;2024-02-26T00:22:21;7.60;90.70
11983;DHT22;72623;51.184;7.176;2024-02-26T00:24:56;7.60;91.00
11983;DHT22;72623;51.184;7.176;2024-02-26T00:27:46;7.60;91.50
11983;DHT22;72623;51.184;7.176;2024-02-26T00:30:19;7.70;91.40
11983;DHT22;72623;51.184;7.176;2024-02-26T00:33:16;7.70;91.60
11983;DHT22;72623;51.184;7.176;2024-02-26T00:36:02;7.70;91.00
11983;DHT22;72623;51.184;7.176;2024-02-26T00:38:48;7.70;90.00
11983;DHT22;72623;51.184;7.176;2024-02-26T00:41:43;7.70;90.60
11983;DHT22;72623;51.184;7.176;2024-02-26T00:44:24;7.70;91.00
11983;DHT22;72623;51.184;7.176;2024-02-26T00:47:12;7.70;91.10
11983;DHT22;72623;51.184;7.176;2024-02-26T00:49:44;7.70;89.50
11983;DHT22;72623;51.184;7.176;2024-02-26T00:52:26;7.70;89.20
11983;DHT22;72623;51.184;7.176;2024-02-26T00:55:00;7.80;89.10
11983;DHT22;72623;51.184;7.176;2024-02-26T00:57:48;7.80;87.60
11983;DHT22;72623;51.184;7.176;2024-02-26T01:00:22;7.80;88.50
11983;DHT22;72623;51.184;7.176;2024-02-26T01:02:53;7.80;89.50
11983;DHT22;72623;51.184;7.176;2024-02-26T01:05:37;7.80;88.40
11983;DHT22;72623;51.184;7.176;2024-02-26T01:08:09;7.80;88.30
11983;DHT22;72623;51.184;7.176;2024-02-26T01:10:43;7.80;86.40
11983;DHT22;72623;51.184;7.176;2024-02-26T01:13:29;7.90;82.70
11983;DHT22;72623;51.184;7.176;2024-02-26T01:16:18;7.90;80.80
11983;DHT22;72623;51.184;7.176;2024-02-26T01:25:48;7.90;81.70
11983;DHT22;72623;51.184;7.176;2024-02-26T01:28:42;7.90;83.00
11983;DHT22;72623;51.184;7.176;2024-02-26T01:31:18;7.90;82.90
11983;DHT22;72623;51.184;7.176;2024-02-26T01:34:02;7.90;83.70
11983;DHT22;72623;51.184;7.176;2024-02-26T01:36:47;7.90;84.80
11983;DHT22;72623;51.184;7.176;2024-02-26T01:39:23;7.90;84.80
11983;DHT22;72623;51.184;7.176;2024-02-26T01:42:02;7.90;85.70
11983;DHT22;72623;51.184;7.176;2024-02-26T01:44:38;7.90;86.90
11983;DHT22;72623;51.184;7.176;2024-02-26T01:47:19;7.90;87.80
11983;DHT22;72623;51.184;7.176;2024-02-26T01:50:13;7.90;87.60
11983;DHT22;72623;51.184;7.176;2024-02-26T01:52:51;7.90;88.00
11983;DHT22;72623;51.184;7.176;2024-02-26T01:55:24;7.90;89.50
11983;DHT22;72623;51.184;7.176;2024-02-26T01:57:54;7.90;90.00
11983;DHT22;72623;51.184;7.176;2024-02-26T02:00:22;7.90;91.70
11983;DHT22;72623;51.184;7.176;2024-02-26T02:02:50;7.90;93.60
11983;DHT22;72623;51.184;7.176;2024-02-26T02:05:20;7.90;97.20
11983;DHT22;72623;51.184;7.176;2024-02-26T02:11:29;7.80;99.90
11983;DHT22;72623;51.184;7.176;2024-02-26T02:14:18;7.80;99.90
11983;DHT22;72623;51.184;7.176;2024-02-26T02:16:45;7.70;99.90
11983;DHT22;72623;51.184;7.176;2024-02-26T02:19:12;7.70;99.90
11983;DHT22;72623;51.184;7.176;2024-02-26T02:21:39;7.60;99.90
11983;DHT22;72623;51.184;7.176;2024-02-26T02:24:08;7.60;99.90
11983;DHT22;72623;51.184;7.176;2024-02-26T02:26:35;7.60;99.90
11983;DHT22;72623;51.184;7.176;2024-02-26T02:29:06;7.50;99.90
11983;DHT22;72623;51.184;7.176;2024-02-26T02:31:47;7.50;99.90
11983;DHT22;72623;51.184;7.176;2024-02-26T02:34:31;7.50;99.90
11983;DHT22;72623;51.184;7.176;2024-02-26T02:37:03;7.40;99.90
11983;DHT22;72623;51.184;7.176;2024-02-26T02:39:30;7.40;99.90
11983;DHT22;72623;51.184;7.176;2024-02-26T02:41:57;7.40;99.90
11983;DHT22;72623;51.184;7.176;2024-02-26T02:44:26;7.30;99.90
11983;DHT22;72623;51.184;7.176;2024-02-26T02:46:53;7.20;99.90
11983;DHT22;72623;51.184;7.176;2024-02-26T02:49:23;7.20;99.90
11983;DHT22;72623;51.184;7.176;2024-02-26T02:51:54;7.20;99.90
11983;DHT22;72623;51.184;7.176;2024-02-26T02:54:23;7.20;99.90
11983;DHT22;72623;51.184;7.176;2024-02-26T02:56:50;7.20;99.90
11983;DHT22;72623;51.184;7.176;2024-02-26T02:59:19;7.10;99.90
11983;DHT22;72623;51.184;7.176;2024-02-26T03:01:46;7.00;99.90
11983;DHT22;72623;51.184;7.176;2024-02-26T03:04:13;7.00;99.90
11983;DHT22;72623;51.184;7.176;2024-02-26T03:06:40;7.00;99.90
11983;DHT22;72623;51.184;7.176;2024-02-26T03:09:07;7.00;99.90
11983;DHT22;72623;51.184;7.176;2024-02-26T03:11:34;7.00;99.90
11983;DHT22;72623;51.184;7.176;2024-02-26T03:14:01;7.00;99.90
11983;DHT22;72623;51.184;7.176;2024-02-26T03:16:28;7.00;99.90
11983;DHT22;72623;51.184;7.176;2024-02-26T03:19:00;7.00;99.90
11983;DHT22;72623;51.184;7.176;2024-02-26T03:21:27;7.10;99.90
11983;DHT22;72623;51.184;7.176;2024-02-26T03:23:54;7.00;99.90
11983;DHT22;72623;51.184;7.176;2024-02-26T03:26:22;7.00;99.90
11983;DHT22;72623;51.184;7.176;2024-02-26T03:28:51;7.00;99.90
11983;DHT22;72623;51.184;7.176;2024-02-26T03:31:18;7.00;99.90
11983;DHT22;72623;51.184;7.176;2024-02-26T03:33:48;7.00;99.90
11983;DHT22;72623;51.184;7.176;2024-02-26T03:36:15;7.10;99.90
11983;DHT22;72623;51.184;7.176;2024-02-26T03:38:42;7.00;99.90
11983;DHT22;72623;51.184;7.176;2024-02-26T03:41:12;7.00;99.90
11983;DHT22;72623;51.184;7.176;2024-02-26T03:43:39;7.00;99.90
11983;DHT22;72623;51.184;7.176;2024-02-26T03:46:09;7.00;99.90
11983;DHT22;72623;51.184;7.176;2024-02-26T03:48:41;7.00;99.90
11983;DHT22;72623;51.184;7.176;2024-02-26T03:51:13;7.00;99.90
11983;DHT22;72623;51.184;7.176;2024-02-26T03:53:45;7.00;99.90
11983;DHT22;72623;51.184;7.176;2024-02-26T03:56:12;7.00;99.90
11983;DHT22;72623;51.184;7.176;2024-02-26T03:58:39;7.00;99.90
11983;DHT22;72623;51.184;7.176;2024-02-26T04:01:08;7.00;99.90
11983;DHT22;72623;51.184;7.176;2024-02-26T04:03:35;7.00;99.90
11983;DHT22;72623;51.184;7.176;2024-02-26T04:06:02;7.00;99.90
11983;DHT22;72623;51.184;7.176;2024-02-26T04:08:29;7.00;99.90
11983;DHT22;72623;51.184;7.176;2024-02-26T04:10:56;7.00;99.90
11983;DHT22;72623;51.184;7.176;2024-02-26T04:13:23;7.00;99.90
11983;DHT22;72623;51.184;7.176;2024-02-26T04:15:50;7.00;99.90
11983;DHT22;72623;51.184;7.176;2024-02-26T04:18:17;7.00;99.90
11983;DHT22;72623;51.184;7.176;2024-02-26T04:20:44;7.00;99.90
11983;DHT22;72623;51.184;7.176;2024-02-26T04:23:10;6.90;99.90
11983;DHT22;72623;51.184;7.176;2024-02-26T04:25:37;6.90;99.90
11983;DHT22;72623;51.184;7.176;2024-02-26T04:28:04;6.90;99.90
11983;DHT22;72623;51.184;7.176;2024-02-26T04:30:37;6.90;99.90
11983;DHT22;72623;51.184;7.176;2024-02-26T04:33:04;6.90;99.90
11983;DHT22;72623;51.184;7.176;2024-02-26T04:35:31;6.90;99.90
11983;DHT22;72623;51.184;7.176;2024-02-26T04:37:58;6.90;99.90
11983;DHT22;72623;51.184;7.176;2024-02-26T04:40:25;6.90;99.90
11983;DHT22;72623;51.184;7.176;2024-02-26T04:42:52;6.90;99.90
11983;DHT22;72623;51.184;7.176;2024-02-26T04:45:18;6.90;99.90
11983;DHT22;72623;51.184;7.176;2024-02-26T04:47:46;6.90;99.90
11983;DHT22;72623;51.184;7.176;2024-02-26T04:50:13;6.90;99.90
11983;DHT22;72623;51.184;7.176;2024-02-26T04:52:40;6.90;99.90
11983;DHT22;72623;51.184;7.176;2024-02-26T04:55:07;6.90;99.90
11983;DHT22;72623;51.184;7.176;2024-02-26T04:57:34;6.90;99.90
11983;DHT22;72623;51.184;7.176;2024-02-26T05:00:16;6.80;99.90
11983;DHT22;72623;51.184;7.176;2024-02-26T05:02:43;6.80;99.90
11983;DHT22;72623;51.184;7.176;2024-02-26T05:05:10;6.70;99.90
11983;DHT22;72623;51.184;7.176;2024-02-26T05:07:44;6.70;99.90
11983;DHT22;72623;51.184;7.176;2024-02-26T05:10:11;6.70;99.90
11983;DHT22;72623;51.184;7.176;2024-02-26T05:12:38;6.70;99.90
11983;DHT22;72623;51.184;7.176;2024-02-26T05:15:09;6.70;99.90
11983;DHT22;72623;51.184;7.176;2024-02-26T05:17:36;6.60;99.90
11983;DHT22;72623;51.184;7.176;2024-02-26T05:20:03;6.60;99.90
11983;DHT22;72623;51.184;7.176;2024-02-26T05:22:33;6.70;99.90
11983;DHT22;72623;51.184;7.176;2024-02-26T05:24:59;6.60;99.90
11983;DHT22;72623;51.184;7.176;2024-02-26T05:27:26;6.60;99.90
11983;DHT22;72623;51.184;7.176;2024-02-26T05:29:56;6.60;99.90
11983;DHT22;72623;51.184;7.176;2024-02-26T05:32:23;6.60;99.90
11983;DHT22;72623;51.184;7.176;2024-02-26T05:34:50;6.60;99.90
11983;DHT22;72623;51.184;7.176;2024-02-26T05:37:16;6.60;99.90
11983;DHT22;72623;51.184;7.176;2024-02-26T05:39:43;6.60;99.90
11983;DHT22;72623;51.184;7.176;2024-02-26T05:42:12;6.60;99.90
11983;DHT22;72623;51.184;7.176;2024-02-26T05:44:39;6.50;99.90
11983;DHT22;72623;51.184;7.176;2024-02-26T05:47:06;6.50;99.90
11983;DHT22;72623;51.184;7.176;2024-02-26T05:49:32;6.60;99.90
11983;DHT22;72623;51.184;7.176;2024-02-26T05:51:59;6.50;99.90
11983;DHT22;72623;51.184;7.176;2024-02-26T05:54:26;6.60;99.90
11983;DHT22;72623;51.184;7.176;2024-02-26T05:56:53;6.50;99.90
11983;DHT22;72623;51.184;7.176;2024-02-26T05:59:19;6.50;99.90
11983;DHT22;72623;51.184;7.176;2024-02-26T06:01:47;6.40;99.90
11983;DHT22;72623;51.184;7.176;2024-02-26T06:04:13;6.40;99.90
11983;DHT22;72623;51.184;7.176;2024-02-26T06:06:40;6.40;99.90
11983;DHT22;72623;51.184;7.176;2024-02-26T06:09:07;6.50;99.90
11983;DHT22;72623;51.184;7.176;2024-02-26T06:11:34;6.50;99.90
11983;DHT22;72623;51.184;7.176;2024-02-26T06:14:01;6.50;99.90
11983;DHT22;72623;51.184;7.176;2024-02-26T06:16:30;6.40;99.90
11983;DHT22;72623;51.184;7.176;2024-02-26T06:18:59;6.50;99.90
11983;DHT22;72623;51.184;7.176;2024-02-26T06:21:26;6.40;99.90
11983;DHT22;72623;51.184;7.176;2024-02-26T06:24:03;6.40;99.90
11983;DHT22;72623;51.184;7.176;2024-02-26T06:30:11;6.40;99.90
11983;DHT22;72623;51.184;7.176;2024-02-26T06:32:38;6.40;99.90
11983;DHT22;72623;51.184;7.176;2024-02-26T06:35:05;6.40;99.90
11983;DHT22;72623;51.184;7.176;2024-02-26T06:37:34;6.40;99.90
11983;DHT22;72623;51.184;7.176;2024-02-26T06:40:01;6.40;99.90
11983;DHT22;72623;51.184;7.176;2024-02-26T06:42:29;6.30;99.90
11983;DHT22;72623;51.184;7.176;2024-02-26T06:44:58;6.30;99.90
11983;DHT22;72623;51.184;7.176;2024-02-26T06:47:24;6.30;99.90
11983;DHT22;72623;51.184;7.176;2024-02-26T06:49:51;6.30;99.90
11983;DHT22;72623;51.184;7.176;2024-02-26T06:52:18;6.30;99.90
11983;DHT22;72623;51.184;7.176;2024-02-26T06:54:45;6.30;99.90
11983;DHT22;72623;51.184;7.176;2024-02-26T06:57:13;6.30;99.90
11983;DHT22;72623;51.184;7.176;2024-02-26T06:59:40;6.30;99.90
11983;DHT22;72623;51.184;7.176;2024-02-26T07:02:11;6.20;99.90
11983;DHT22;72623;51.184;7.176;2024-02-26T07:04:38;6.30;99.90
11983;DHT22;72623;51.184;7.176;2024-02-26T07:07:04;6.30;99.90
11983;DHT22;72623;51.184;7.176;2024-02-26T07:09:31;6.30;99.90
11983;DHT22;72623;51.184;7.176;2024-02-26T07:11:58;6.30;99.90
11983;DHT22;72623;51.184;7.176;2024-02-26T07:14:25;6.30;99.90
11983;DHT22;72623;51.184;7.176;2024-02-26T07:16:51;6.40;99.90
11983;DHT22;72623;51.184;7.176;2024-02-26T07:19:18;6.40;99.90
11983;DHT22;72623;51.184;7.176;2024-02-26T07:21:45;6.40;99.90
11983;DHT22;72623;51.184;7.176;2024-02-26T07:24:11;6.40;99.90
11983;DHT22;72623;51.184;7.176;2024-02-26T07:26:39;6.30;99.90
11983;DHT22;72623;51.184;7.176;2024-02-26T07:29:06;6.20;99.90
11983;DHT22;72623;51.184;7.176;2024-02-26T07:31:33;6.30;99.90
11983;DHT22;72623;51.184;7.176;2024-02-26T07:34:00;6.20;99.90
11983;DHT22;72623;51.184;7.176;2024-02-26T07:36:26;6.30;99.90
11983;DHT22;72623;51.184;7.176;2024-02-26T07:38:53;6.20;99.90
11983;DHT22;72623;51.184;7.176;2024-02-26T07:41:20;6.30;99.90
11983;DHT22;72623;51.184;7.176;2024-02-26T07:43:47;6.30;99.90
11983;DHT22;72623;51.184;7.176;2024-02-26T07:46:18;6.30;99.90
11983;DHT22;72623;51.184;7.176;2024-02-26T07:48:53;6.30;99.90
11983;DHT22;72623;51.184;7.176;2024-02-26T07:51:20;6.30;99.90
11983;DHT22;72623;51.184;7.176;2024-02-26T07:53:50;6.30;99.90
11983;DHT22;72623;51.184;7.176;2024-02-26T07:56:18;6.30;99.90
11983;DHT22;72623;51.184;7.176;2024-02-26T07:58:47;6.40;99.90
11983;DHT22;72623;51.184;7.176;2024-02-26T08:01:25;6.40;99.90
11983;DHT22;72623;51.184;7.176;2024-02-26T08:03:55;6.40;99.90
11983;DHT22;72623;51.184;7.176;2024-02-26T08:06:38;6.40;99.90
11983;DHT22;72623;51.184;7.176;2024-02-26T08:09:10;6.30;99.90
11983;DHT22;72623;51.184;7.176;2024-02-26T08:11:41;6.40;99.90
11983;DHT22;72623;51.184;7.176;2024-02-26T08:14:12;6.40;99.90
11983;DHT22;72623;51.184;7.176;2024-02-26T08:16:49;6.30;99.90
11983;DHT22;72623;51.184;7.176;2024-02-26T08:19:16;6.40;99.90
11983;DHT22;72623;51.184;7.176;2024-02-26T08:21:46;6.40;99.90
11983;DHT22;72623;51.184;7.176;2024-02-26T08:24:17;6.40;99.90
11983;DHT22;72623;51.184;7.176;2024-02-26T08:26:48;6.40;99.90
11983;DHT22;72623;51.184;7.176;2024-02-26T08:29:14;6.40;99.90
11983;DHT22;72623;51.184;7.176;2024-02-26T08:31:57;6.40;99.90
11983;DHT22;72623;51.184;7.176;2024-02-26T08:34:23;6.50;99.90
11983;DHT22;72623;51.184;7.176;2024-02-26T08:36:50;6.50;99.90
11983;DHT22;72623;51.184;7.176;2024-02-26T08:39:18;6.50;99.90
11983;DHT22;72623;51.184;7.176;2024-02-26T08:41:46;6.50;99.90
11983;DHT22;72623;51.184;7.176;2024-02-26T08:44:13;6.50;99.90
11983;DHT22;72623;51.184;7.176;2024-02-26T08:46:42;6.50;99.90
11983;DHT22;72623;51.184;7.176;2024-02-26T08:49:11;6.60;99.90
11983;DHT22;72623;51.184;7.176;2024-02-26T08:51:42;6.50;99.90
11983;DHT22;72623;51.184;7.176;2024-02-26T08:54:10;6.50;99.90
11983;DHT22;72623;51.184;7.176;2024-02-26T08:56:37;6.60;99.90
11983;DHT22;72623;51.184;7.176;2024-02-26T08:59:09;6.60;99.90
11983;DHT22;72623;51.184;7.176;2024-02-26T09:01:48;6.60;99.90
11983;DHT22;72623;51.184;7.176;2024-02-26T09:04:15;6.60;99.90
11983;DHT22;72623;51.184;7.176;2024-02-26T09:06:42;6.60;99.90
11983;DHT22;72623;51.184;7.176;2024-02-26T09:09:11;6.60;99.90
11983;DHT22;72623;51.184;7.176;2024-02-26T09:11:38;6.60;99.90
11983;DHT22;72623;51.184;7.176;2024-02-26T09:14:05;6.70;99.90
11983;DHT22;72623;51.184;7.176;2024-02-26T09:16:34;6.70;99.90
11983;DHT22;72623;51.184;7.176;2024-02-26T09:19:04;6.70;99.90
11983;DHT22;72623;51.184;7.176;2024-02-26T09:21:30;6.70;99.90
11983;DHT22;72623;51.184;7.176;2024-02-26T09:23:57;6.80;99.90
11983;DHT22;72623;51.184;7.176;2024-02-26T09:26:24;6.80;99.90
11983;DHT22;72623;51.184;7.176;2024-02-26T09:28:51;6.80;99.90
11983;DHT22;72623;51.184;7.176;2024-02-26T09:31:21;6.80;99.90
11983;DHT22;72623;51.184;7.176;2024-02-26T09:33:48;6.80;99.90
11983;DHT22;72623;51.184;7.176;2024-02-26T09:36:15;6.80;99.90
11983;DHT22;72623;51.184;7.176;2024-02-26T09:38:42;6.80;99.90
11983;DHT22;72623;51.184;7.176;2024-02-26T09:41:16;6.80;99.90
11983;DHT22;72623;51.184;7.176;2024-02-26T09:43:48;6.80;99.90
11983;DHT22;72623;51.184;7.176;2024-02-26T09:46:15;6.80;99.90
11983;DHT22;72623;51.184;7.176;2024-02-26T09:48:46;6.80;99.90
11983;DHT22;72623;51.184;7.176;2024-02-26T09:51:14;6.80;99.90
11983;DHT22;72623;51.184;7.176;2024-02-26T09:53:43;6.80;99.90
11983;DHT22;72623;51.184;7.176;2024-02-26T09:56:25;6.80;99.90
11983;DHT22;72623;51.184;7.176;2024-02-26T09:59:09;6.80;99.90
11983;DHT22;72623;51.184;7.176;2024-02-26T10:01:38;6.90;99.90
11983;DHT22;72623;51.184;7.176;2024-02-26T10:04:08;7.00;99.90
11983;DHT22;72623;51.184;7.176;2024-02-26T10:06:36;7.00;99.90
11983;DHT22;72623;51.184;7.176;2024-02-26T10:09:16;7.10;99.90
11983;DHT22;72623;51.184;7.176;2024-02-26T10:11:50;7.10;99.90
11983;DHT22;72623;51.184;7.176;2024-02-26T10:14:29;7.10;99.90
11983;DHT22;72623;51.184;7.176;2024-02-26T10:16:56;7.10;99.90
11983;DHT22;72623;51.184;7.176;2024-02-26T10:19:29;7.00;99.90
11983;DHT22;72623;51.184;7.176;2024-02-26T10:21:57;7.00;99.90
11983;DHT22;72623;51.184;7.176;2024-02-26T10:24:28;7.00;99.90
11983;DHT22;72623;51.184;7.176;2024-02-26T10:27:32;7.10;99.90
11983;DHT22;72623;51.184;7.176;2024-02-26T10:30:04;7.00;99.90
11983;DHT22;72623;51.184;7.176;2024-02-26T10:32:34;7.00;99.90
11983;DHT22;72623;51.184;7.176;2024-02-26T10:35:00;7.00;99.90
11983;DHT22;72623;51.184;7.176;2024-02-26T10:37:28;7.10;99.90
11983;DHT22;72623;51.184;7.176;2024-02-26T10:46:49;7.10;99.90
11983;DHT22;72623;51.184;7.176;2024-02-26T10:50:10;7.20;99.90
11983;DHT22;72623;51.184;7.176;2024-02-26T10:52:58;7.20;99.90
11983;DHT22;72623;51.184;7.176;2024-02-26T10:55:36;7.20;99.90
11983;DHT22;72623;51.184;7.176;2024-02-26T10:58:22;7.20;99.90
11983;DHT22;72623;51.184;7.176;2024-02-26T11:01:08;7.20;99.90
11983;DHT22;72623;51.184;7.176;2024-02-26T11:04:07;7.20;99.90
11983;DHT22;72623;51.184;7.176;2024-02-26T11:07:03;7.10;99.90
11983;DHT22;72623;51.184;7.176;2024-02-26T11:09:47;7.20;99.90
11983;DHT22;72623;51.184;7.176;2024-02-26T11:12:48;7.20;99.90
11983;DHT22;72623;51.184;7.176;2024-02-26T11:15:50;7.20;99.90
11983;DHT22;72623;51.184;7.176;2024-02-26T11:28:58;7.30;99.90
11983;DHT22;72623;51.184;7.176;2024-02-26T11:31:50;7.30;99.90
11983;DHT22;72623;51.184;7.176;2024-02-26T11:34:35;7.30;99.90
11983;DHT22;72623;51.184;7.176;2024-02-26T11:58:31;7.40;99.90
11983;DHT22;72623;51.184;7.176;2024-02-26T12:00:58;7.30;99.90
11983;DHT22;72623;51.184;7.176;2024-02-26T12:03:25;7.30;99.90
11983;DHT22;72623;51.184;7.176;2024-02-26T12:05:52;7.30;99.90
11983;DHT22;72623;51.184;7.176;2024-02-26T12:08:45;7.20;99.90
11983;DHT22;72623;51.184;7.176;2024-02-26T12:11:15;7.30;99.90
11983;DHT22;72623;51.184;7.176;2024-02-26T12:13:47;7.30;99.90
11983;DHT22;72623;51.184;7.176;2024-02-26T12:16:38;7.30;99.90
11983;DHT22;72623;51.184;7.176;2024-02-26T12:19:10;7.30;99.90
11983;DHT22;72623;51.184;7.176;2024-02-26T12:21:37;7.20;99.90
11983;DHT22;72623;51.184;7.176;2024-02-26T12:24:14;7.20;99.90
11983;DHT22;72623;51.184;7.176;2024-02-26T12:26:48;7.20;99.90
11983;DHT22;72623;51.184;7.176;2024-02-26T12:29:21;7.30;99.90
11983;DHT22;72623;51.184;7.176;2024-02-26T12:31:48;7.20;99.90
11983;DHT22;72623;51.184;7.176;2024-02-26T12:34:15;7.20;99.90
11983;DHT22;72623;51.184;7.176;2024-02-26T12:36:42;7.30;99.90
11983;DHT22;72623;51.184;7.176;2024-02-26T12:39:09;7.30;99.90
11983;DHT22;72623;51.184;7.176;2024-02-26T12:41:35;7.30;99.90
11983;DHT22;72623;51.184;7.176;2024-02-26T12:44:02;7.30;99.90
11983;DHT22;72623;51.184;7.176;2024-02-26T12:46:29;7.40;99.90
11983;DHT22;72623;51.184;7.176;2024-02-26T12:48:58;7.40;99.90
11983;DHT22;72623;51.184;7.176;2024-02-26T12:51:25;7.40;99.90
11983;DHT22;72623;51.184;7.176;2024-02-26T12:53:55;7.50;99.90
11983;DHT22;72623;51.184;7.176;2024-02-26T12:56:23;7.50;99.90
11983;DHT22;72623;51.184;7.176;2024-02-26T12:58:50;7.40;99.90
11983;DHT22;72623;51.184;7.176;2024-02-26T13:01:19;7.50;99.90
11983;DHT22;72623;51.184;7.176;2024-02-26T13:03:48;7.50;99.90
11983;DHT22;72623;51.184;7.176;2024-02-26T13:06:16;7.50;99.90
11983;DHT22;72623;51.184;7.176;2024-02-26T13:08:43;7.50;99.90
11983;DHT22;72623;51.184;7.176;2024-02-26T13:11:10;7.50;99.90
11983;DHT22;72623;51.184;7.176;2024-02-26T13:13:37;7.60;99.90
11983;DHT22;72623;51.184;7.176;2024-02-26T13:16:19;7.50;99.90
11983;DHT22;72623;51.184;7.176;2024-02-26T13:19:11;7.50;99.90
11983;DHT22;72623;51.184;7.176;2024-02-26T13:21:39;7.50;99.90
11983;DHT22;72623;51.184;7.176;2024-02-26T13:24:06;7.50;99.90
11983;DHT22;72623;51.184;7.176;2024-02-26T13:27:03;7.60;99.90
11983;DHT22;72623;51.184;7.176;2024-02-26T13:33:14;7.60;99.90
11983;DHT22;72623;51.184;7.176;2024-02-26T13:35:44;7.70;99.90
11983;DHT22;72623;51.184;7.176;2024-02-26T13:38:13;7.80;99.90
11983;DHT22;72623;51.184;7.176;2024-02-26T13:40:40;7.70;99.90
11983;DHT22;72623;51.184;7.176;2024-02-26T13:43:18;7.80;99.90
11983;DHT22;72623;51.184;7.176;2024-02-26T13:45:48;7.80;99.90
11983;DHT22;72623;51.184;7.176;2024-02-26T13:48:15;7.80;99.90
11983;DHT22;72623;51.184;7.176;2024-02-26T13:50:44;7.90;99.90
11983;DHT22;72623;51.184;7.176;2024-02-26T13:53:12;8.00;99.90
11983;DHT22;72623;51.184;7.176;2024-02-26T13:55:40;8.00;99.90
11983;DHT22;72623;51.184;7.176;2024-02-26T13:58:08;8.10;99.90
11983;DHT22;72623;51.184;7.176;2024-02-26T14:00:49;8.10;99.90
11983;DHT22;72623;51.184;7.176;2024-02-26T14:07:05;8.00;99.90
11983;DHT22;72623;51.184;7.176;2024-02-26T14:09:32;7.90;99.90
11983;DHT22;72623;51.184;7.176;2024-02-26T14:12:00;8.00;99.90
11983;DHT22;72623;51.184;7.176;2024-02-26T14:24:42;7.90;99.90
11983;DHT22;72623;51.184;7.176;2024-02-26T14:27:11;7.90;99.90
11983;DHT22;72623;51.184;7.176;2024-02-26T14:29:54;8.00;99.90
11983;DHT22;72623;51.184;7.176;2024-02-26T14:32:27;8.00;99.90
11983;DHT22;72623;51.184;7.176;2024-02-26T14:42:15;8.00;99.90
11983;DHT22;72623;51.184;7.176;2024-02-26T14:44:45;8.00;99.90
11983;DHT22;72623;51.184;7.176;2024-02-26T14:47:13;8.00;99.90
11983;DHT22;72623;51.184;7.176;2024-02-26T14:49:46;8.00;99.90
11983;DHT22;72623;51.184;7.176;2024-02-26T14:52:14;8.00;99.90
11983;DHT22;72623;51.184;7.176;2024-02-26T14:54:41;8.00;99.90
11983;DHT22;72623;51.184;7.176;2024-02-26T14:57:11;8.00;99.90
11983;DHT22;72623;51.184;7.176;2024-02-26T14:59:38;7.90;99.90
11983;DHT22;72623;51.184;7.176;2024-02-26T15:02:08;7.90;99.90
11983;DHT22;72623;51.184;7.176;2024-02-26T15:04:36;7.90;99.90
11983;DHT22;72623;51.184;7.176;2024-02-26T15:07:04;7.90;99.90
11983;DHT22;72623;51.184;7.176;2024-02-26T15:09:31;7.90;99.90
11983;DHT22;72623;51.184;7.176;2024-02-26T15:14:37;7.80;99.90
11983;DHT22;72623;51.184;7.176;2024-02-26T15:17:07;7.90;99.90
11983;DHT22;72623;51.184;7.176;2024-02-26T15:30:10;7.70;99.90
11983;DHT22;72623;51.184;7.176;2024-02-26T15:32:40;7.80;99.90
11983;DHT22;72623;51.184;7.176;2024-02-26T15:48:48;7.80;99.90
11983;DHT22;72623;51.184;7.176;2024-02-26T15:51:40;7.90;99.90
11983;DHT22;72623;51.184;7.176;2024-02-26T16:57:50;7.70;99.90
11983;DHT22;72623;51.184;7.176;2024-02-26T17:00:16;7.70;99.90
11983;DHT22;72623;51.184;7.176;2024-02-26T17:02:46;7.70;99.90
11983;DHT22;72623;51.184;7.176;2024-02-26T17:05:14;7.70;99.90
11983;DHT22;72623;51.184;7.176;2024-02-26T17:07:40;7.50;99.90
11983;DHT22;72623;51.184;7.176;2024-02-26T17:10:10;7.50;99.90
11983;DHT22;72623;51.184;7.176;2024-02-26T17:12:37;7.60;99.90
11983;DHT22;72623;51.184;7.176;2024-02-26T17:15:04;7.60;99.90
11983;DHT22;72623;51.184;7.176;2024-02-26T17:17:31;7.50;99.90
11983;DHT22;72623;51.184;7.176;2024-02-26T17:19:58;7.50;99.90
11983;DHT22;72623;51.184;7.176;2024-02-26T17:22:25;7.40;99.90
11983;DHT22;72623;51.184;7.176;2024-02-26T17:24:52;7.50;99.90
11983;DHT22;72623;51.184;7.176;2024-02-26T17:27:20;7.50;99.90
11983;DHT22;72623;51.184;7.176;2024-02-26T17:29:47;7.50;99.90
11983;DHT22;72623;51.184;7.176;2024-02-26T17:32:14;7.40;99.90
11983;DHT22;72623;51.184;7.176;2024-02-26T17:34:41;7.40;99.90
11983;DHT22;72623;51.184;7.176;2024-02-26T17:37:14;7.40;99.90
11983;DHT22;72623;51.184;7.176;2024-02-26T17:39:42;7.40;99.90
11983;DHT22;72623;51.184;7.176;2024-02-26T17:42:11;7.40;99.90
11983;DHT22;72623;51.184;7.176;2024-02-26T17:44:40;7.30;99.90
11983;DHT22;72623;51.184;7.176;2024-02-26T17:47:13;7.30;99.90
11983;DHT22;72623;51.184;7.176;2024-02-26T17:49:40;7.30;99.90
11983;DHT22;72623;51.184;7.176;2024-02-26T17:52:07;7.20;99.90
11983;DHT22;72623;51.184;7.176;2024-02-26T17:54:41;7.20;99.90
11983;DHT22;72623;51.184;7.176;2024-02-26T17:57:18;7.20;99.90
11983;DHT22;72623;51.184;7.176;2024-02-26T17:59:46;7.20;99.90
11983;DHT22;72623;51.184;7.176;2024-02-26T18:02:13;7.20;99.90
11983;DHT22;72623;51.184;7.176;2024-02-26T18:04:40;7.10;99.90
11983;DHT22;72623;51.184;7.176;2024-02-26T18:07:12;7.10;99.90
11983;DHT22;72623;51.184;7.176;2024-02-26T18:09:43;7.10;99.90
11983;DHT22;72623;51.184;7.176;2024-02-26T18:12:19;7.10;99.90
11983;DHT22;72623;51.184;7.176;2024-02-26T18:14:46;7.10;99.90
11983;DHT22;72623;51.184;7.176;2024-02-26T18:17:13;7.10;99.90
11983;DHT22;72623;51.184;7.176;2024-02-26T18:19:40;7.10;99.90
11983;DHT22;72623;51.184;7.176;2024-02-26T18:22:07;7.10;99.90
11983;DHT22;72623;51.184;7.176;2024-02-26T18:24:34;7.10;99.90
11983;DHT22;72623;51.184;7.176;2024-02-26T18:27:04;7.10;99.90
11983;DHT22;72623;51.184;7.176;2024-02-26T18:29:34;7.10;99.90
11983;DHT22;72623;51.184;7.176;2024-02-26T18:32:01;7.10;99.90
11983;DHT22;72623;51.184;7.176;2024-02-26T18:34:27;7.10;99.90
11983;DHT22;72623;51.184;7.176;2024-02-26T18:37:05;7.10;99.90
11983;DHT22;72623;51.184;7.176;2024-02-26T18:39:32;7.10;99.90
11983;DHT22;72623;51.184;7.176;2024-02-26T18:42:03;7.10;99.90
11983;DHT22;72623;51.184;7.176;2024-02-26T18:44:31;7.10;99.90
11983;DHT22;72623;51.184;7.176;2024-02-26T18:46:59;7.10;99.90
11983;DHT22;72623;51.184;7.176;2024-02-26T18:49:32;7.00;99.90
11983;DHT22;72623;51.184;7.176;2024-02-26T18:52:04;7.00;99.90
11983;DHT22;72623;51.184;7.176;2024-02-26T18:54:31;6.90;99.90
11983;DHT22;72623;51.184;7.176;2024-02-26T19:00:12;7.00;99.90
11983;DHT22;72623;51.184;7.176;2024-02-26T19:02:54;7.10;99.90